sensor_id;sensor_type;location;lat;lon;timestamp;temperature;humidity
43151;DHT22;28755;51.478;5.702;2023-12-20T00:00:58;7.50;99.90
43151;DHT22;28755;51.478;5.702;2023-12-20T00:03:23;7.50;99.90
43151;DHT22;28755;51.478;5.702;2023-12-20T00:05:49;7.40;99.90
43151;DHT22;28755;51.478;5.702;2023-12-20T00:08:15;7.40;99.90
43151;DHT22;28755;51.478;5.702;2023-12-20T00:10:41;7.40;99.90
43151;DHT22;28755;51.478;5.702;2023-12-20T00:13:07;7.60;99.90
43151;DHT22;28755;51.478;5.702;2023-12-20T00:15:33;7.40;99.90
43151;DHT22;28755;51.478;5.702;2023-12-20T00:17:59;7.30;99.90
43151;DHT22;28755;51.478;5.702;2023-12-20T00:20:24;7.20;99.90
43151;DHT22;28755;51.478;5.702;2023-12-20T00:22:50;7.10;99.90
43151;DHT22;28755;51.478;5.702;2023-12-20T00:25:16;7.10;99.90
43151;DHT22;28755;51.478;5.702;2023-12-20T00:27:41;7.00;99.90
43151;DHT22;28755;51.478;5.702;2023-12-20T00:30:08;7.00;99.90
43151;DHT22;28755;51.478;5.702;2023-12-20T00:32:35;7.00;99.90
43151;DHT22;28755;51.478;5.702;2023-12-20T00:35:01;7.00;99.90
43151;DHT22;28755;51.478;5.702;2023-12-20T00:37:27;6.90;99.90
43151;DHT22;28755;51.478;5.702;2023-12-20T00:39:52;6.90;99.90
43151;DHT22;28755;51.478;5.702;2023-12-20T00:42:18;6.90;99.90
43151;DHT22;28755;51.478;5.702;2023-12-20T00:44:44;6.80;99.90
43151;DHT22;28755;51.478;5.702;2023-12-20T00:47:10;6.80;99.90
43151;DHT22;28755;51.478;5.702;2023-12-20T00:49:35;6.70;99.90
43151;DHT22;28755;51.478;5.702;2023-12-20T00:52:01;6.70;99.90
43151;DHT22;28755;51.478;5.702;2023-12-20T00:54:26;6.70;99.90
43151;DHT22;28755;51.478;5.702;2023-12-20T00:56:52;6.60;99.90
43151;DHT22;28755;51.478;5.702;2023-12-20T00:59:19;6.60;99.90
43151;DHT22;28755;51.478;5.702;2023-12-20T01:01:45;6.60;99.90
43151;DHT22;28755;51.478;5.702;2023-12-20T01:04:10;6.40;99.90
43151;DHT22;28755;51.478;5.702;2023-12-20T01:06:36;6.50;99.90
43151;DHT22;28755;51.478;5.702;2023-12-20T01:09:02;6.40;99.90
43151;DHT22;28755;51.478;5.702;2023-12-20T01:11:28;6.40;99.90
43151;DHT22;28755;51.478;5.702;2023-12-20T01:13:53;6.50;99.90
43151;DHT22;28755;51.478;5.702;2023-12-20T01:16:19;6.30;99.90
43151;DHT22;28755;51.478;5.702;2023-12-20T01:18:45;6.30;99.90
43151;DHT22;28755;51.478;5.702;2023-12-20T01:21:10;6.20;99.90
43151;DHT22;28755;51.478;5.702;2023-12-20T01:23:36;6.30;99.90
43151;DHT22;28755;51.478;5.702;2023-12-20T01:26:02;6.30;99.90
43151;DHT22;28755;51.478;5.702;2023-12-20T01:28:28;6.30;99.90
43151;DHT22;28755;51.478;5.702;2023-12-20T01:30:53;6.30;99.90
43151;DHT22;28755;51.478;5.702;2023-12-20T01:33:19;6.20;99.90
43151;DHT22;28755;51.478;5.702;2023-12-20T01:35:45;6.20;99.90
43151;DHT22;28755;51.478;5.702;2023-12-20T01:38:10;6.20;99.90
43151;DHT22;28755;51.478;5.702;2023-12-20T01:40:36;6.20;99.90
43151;DHT22;28755;51.478;5.702;2023-12-20T01:43:06;6.10;99.90
43151;DHT22;28755;51.478;5.702;2023-12-20T01:45:33;6.10;99.90
43151;DHT22;28755;51.478;5.702;2023-12-20T01:47:59;6.20;99.90
43151;DHT22;28755;51.478;5.702;2023-12-20T01:50:25;6.20;99.90
43151;DHT22;28755;51.478;5.702;2023-12-20T01:52:52;6.30;99.90
43151;DHT22;28755;51.478;5.702;2023-12-20T01:55:21;6.30;99.90
43151;DHT22;28755;51.478;5.702;2023-12-20T01:57:47;6.30;99.90
43151;DHT22;28755;51.478;5.702;2023-12-20T02:00:13;6.20;99.90
43151;DHT22;28755;51.478;5.702;2023-12-20T02:02:40;6.40;99.90
43151;DHT22;28755;51.478;5.702;2023-12-20T02:05:09;6.50;99.90
43151;DHT22;28755;51.478;5.702;2023-12-20T02:07:36;6.60;99.90
43151;DHT22;28755;51.478;5.702;2023-12-20T02:10:02;6.60;99.90
43151;DHT22;28755;51.478;5.702;2023-12-20T02:12:29;6.50;99.90
43151;DHT22;28755;51.478;5.702;2023-12-20T02:14:54;6.50;99.90
43151;DHT22;28755;51.478;5.702;2023-12-20T02:17:20;6.50;99.90
43151;DHT22;28755;51.478;5.702;2023-12-20T02:19:46;6.40;99.90
43151;DHT22;28755;51.478;5.702;2023-12-20T02:22:12;6.40;99.90
43151;DHT22;28755;51.478;5.702;2023-12-20T02:24:38;6.40;99.90
43151;DHT22;28755;51.478;5.702;2023-12-20T02:27:06;6.40;99.90
43151;DHT22;28755;51.478;5.702;2023-12-20T02:29:33;6.40;99.90
43151;DHT22;28755;51.478;5.702;2023-12-20T02:31:59;6.30;99.90
43151;DHT22;28755;51.478;5.702;2023-12-20T02:34:24;6.30;99.90
43151;DHT22;28755;51.478;5.702;2023-12-20T02:36:50;6.20;99.90
43151;DHT22;28755;51.478;5.702;2023-12-20T02:39:16;6.30;99.90
43151;DHT22;28755;51.478;5.702;2023-12-20T02:41:42;6.30;99.90
43151;DHT22;28755;51.478;5.702;2023-12-20T02:44:08;6.40;99.90
43151;DHT22;28755;51.478;5.702;2023-12-20T02:46:33;6.40;99.90
43151;DHT22;28755;51.478;5.702;2023-12-20T02:48:59;6.40;99.90
43151;DHT22;28755;51.478;5.702;2023-12-20T02:51:24;6.30;99.90
43151;DHT22;28755;51.478;5.702;2023-12-20T02:53:50;6.30;99.90
43151;DHT22;28755;51.478;5.702;2023-12-20T02:56:16;6.30;99.90
43151;DHT22;28755;51.478;5.702;2023-12-20T02:58:41;6.30;99.90
43151;DHT22;28755;51.478;5.702;2023-12-20T03:01:07;6.20;99.90
43151;DHT22;28755;51.478;5.702;2023-12-20T03:03:32;6.20;99.90
43151;DHT22;28755;51.478;5.702;2023-12-20T03:05:58;6.30;99.90
43151;DHT22;28755;51.478;5.702;2023-12-20T03:08:24;6.30;99.90
43151;DHT22;28755;51.478;5.702;2023-12-20T03:10:50;6.30;99.90
43151;DHT22;28755;51.478;5.702;2023-12-20T03:13:15;6.30;99.90
43151;DHT22;28755;51.478;5.702;2023-12-20T03:15:41;6.30;99.90
43151;DHT22;28755;51.478;5.702;2023-12-20T03:18:07;6.40;99.90
43151;DHT22;28755;51.478;5.702;2023-12-20T03:20:32;6.40;99.90
43151;DHT22;28755;51.478;5.702;2023-12-20T03:23:00;6.30;99.90
43151;DHT22;28755;51.478;5.702;2023-12-20T03:25:25;6.40;99.90
43151;DHT22;28755;51.478;5.702;2023-12-20T03:27:52;6.40;99.90
43151;DHT22;28755;51.478;5.702;2023-12-20T03:30:17;6.40;99.90
43151;DHT22;28755;51.478;5.702;2023-12-20T03:32:44;6.40;99.90
43151;DHT22;28755;51.478;5.702;2023-12-20T03:35:09;6.40;99.90
43151;DHT22;28755;51.478;5.702;2023-12-20T03:37:35;6.40;99.90
43151;DHT22;28755;51.478;5.702;2023-12-20T03:40:01;6.30;99.90
43151;DHT22;28755;51.478;5.702;2023-12-20T03:42:27;6.40;99.90
43151;DHT22;28755;51.478;5.702;2023-12-20T03:44:52;6.30;99.90
43151;DHT22;28755;51.478;5.702;2023-12-20T03:47:18;6.30;99.90
43151;DHT22;28755;51.478;5.702;2023-12-20T03:49:43;6.30;99.90
43151;DHT22;28755;51.478;5.702;2023-12-20T03:52:09;6.20;99.90
43151;DHT22;28755;51.478;5.702;2023-12-20T03:54:35;6.20;99.90
43151;DHT22;28755;51.478;5.702;2023-12-20T03:57:01;6.20;99.90
43151;DHT22;28755;51.478;5.702;2023-12-20T03:59:26;6.30;99.90
43151;DHT22;28755;51.478;5.702;2023-12-20T04:01:52;6.30;99.90
43151;DHT22;28755;51.478;5.702;2023-12-20T04:04:18;6.20;99.90
43151;DHT22;28755;51.478;5.702;2023-12-20T04:06:44;6.40;99.90
43151;DHT22;28755;51.478;5.702;2023-12-20T04:09:10;6.50;99.90
43151;DHT22;28755;51.478;5.702;2023-12-20T04:11:36;6.50;99.90
43151;DHT22;28755;51.478;5.702;2023-12-20T04:14:02;6.50;99.90
43151;DHT22;28755;51.478;5.702;2023-12-20T04:16:27;6.60;99.90
43151;DHT22;28755;51.478;5.702;2023-12-20T04:18:53;6.50;99.90
43151;DHT22;28755;51.478;5.702;2023-12-20T04:21:19;6.50;99.90
43151;DHT22;28755;51.478;5.702;2023-12-20T04:23:44;6.50;99.90
43151;DHT22;28755;51.478;5.702;2023-12-20T04:26:10;6.60;99.90
43151;DHT22;28755;51.478;5.702;2023-12-20T04:28:36;6.50;99.90
43151;DHT22;28755;51.478;5.702;2023-12-20T04:31:01;6.50;99.90
43151;DHT22;28755;51.478;5.702;2023-12-20T04:33:27;6.50;99.90
43151;DHT22;28755;51.478;5.702;2023-12-20T04:35:52;6.70;99.90
43151;DHT22;28755;51.478;5.702;2023-12-20T04:38:18;6.70;99.90
43151;DHT22;28755;51.478;5.702;2023-12-20T04:40:44;6.70;99.90
43151;DHT22;28755;51.478;5.702;2023-12-20T04:43:09;6.70;99.90
43151;DHT22;28755;51.478;5.702;2023-12-20T04:45:35;6.70;99.90
43151;DHT22;28755;51.478;5.702;2023-12-20T04:48:02;6.70;99.90
43151;DHT22;28755;51.478;5.702;2023-12-20T04:50:28;6.70;99.90
43151;DHT22;28755;51.478;5.702;2023-12-20T04:52:53;6.70;99.90
43151;DHT22;28755;51.478;5.702;2023-12-20T04:55:19;6.70;99.90
43151;DHT22;28755;51.478;5.702;2023-12-20T04:57:45;6.70;99.90
43151;DHT22;28755;51.478;5.702;2023-12-20T05:00:11;6.80;99.90
43151;DHT22;28755;51.478;5.702;2023-12-20T05:02:37;6.80;99.90
43151;DHT22;28755;51.478;5.702;2023-12-20T05:05:03;7.30;99.90
43151;DHT22;28755;51.478;5.702;2023-12-20T05:07:29;6.80;99.90
43151;DHT22;28755;51.478;5.702;2023-12-20T05:09:54;6.80;99.90
43151;DHT22;28755;51.478;5.702;2023-12-20T05:12:20;6.80;99.90
43151;DHT22;28755;51.478;5.702;2023-12-20T05:14:46;6.90;99.90
43151;DHT22;28755;51.478;5.702;2023-12-20T05:17:12;6.90;99.90
43151;DHT22;28755;51.478;5.702;2023-12-20T05:19:37;6.80;99.90
43151;DHT22;28755;51.478;5.702;2023-12-20T05:22:03;6.90;99.90
43151;DHT22;28755;51.478;5.702;2023-12-20T05:24:29;6.90;99.90
43151;DHT22;28755;51.478;5.702;2023-12-20T05:26:54;6.80;99.90
43151;DHT22;28755;51.478;5.702;2023-12-20T05:29:20;6.90;99.90
43151;DHT22;28755;51.478;5.702;2023-12-20T05:31:46;6.90;99.90
43151;DHT22;28755;51.478;5.702;2023-12-20T05:34:12;6.90;99.90
43151;DHT22;28755;51.478;5.702;2023-12-20T05:36:37;7.00;99.90
43151;DHT22;28755;51.478;5.702;2023-12-20T05:39:04;6.90;99.90
43151;DHT22;28755;51.478;5.702;2023-12-20T05:41:30;7.00;99.90
43151;DHT22;28755;51.478;5.702;2023-12-20T05:43:56;7.00;99.90
43151;DHT22;28755;51.478;5.702;2023-12-20T05:46:23;7.00;99.90
43151;DHT22;28755;51.478;5.702;2023-12-20T05:48:49;7.00;99.90
43151;DHT22;28755;51.478;5.702;2023-12-20T05:51:15;7.00;99.90
43151;DHT22;28755;51.478;5.702;2023-12-20T05:53:40;7.00;99.90
43151;DHT22;28755;51.478;5.702;2023-12-20T05:56:06;7.10;99.90
43151;DHT22;28755;51.478;5.702;2023-12-20T05:58:35;7.00;99.90
43151;DHT22;28755;51.478;5.702;2023-12-20T06:01:00;7.00;99.90
43151;DHT22;28755;51.478;5.702;2023-12-20T06:03:26;7.00;99.90
43151;DHT22;28755;51.478;5.702;2023-12-20T06:05:52;7.10;99.90
43151;DHT22;28755;51.478;5.702;2023-12-20T06:08:17;7.20;99.90
43151;DHT22;28755;51.478;5.702;2023-12-20T06:10:43;7.10;99.90
43151;DHT22;28755;51.478;5.702;2023-12-20T06:13:08;7.10;99.90
43151;DHT22;28755;51.478;5.702;2023-12-20T06:15:34;7.10;99.90
43151;DHT22;28755;51.478;5.702;2023-12-20T06:18:00;7.10;99.90
43151;DHT22;28755;51.478;5.702;2023-12-20T06:20:26;7.00;99.90
43151;DHT22;28755;51.478;5.702;2023-12-20T06:22:52;7.10;99.90
43151;DHT22;28755;51.478;5.702;2023-12-20T06:25:17;7.20;99.90
43151;DHT22;28755;51.478;5.702;2023-12-20T06:27:43;7.10;99.90
43151;DHT22;28755;51.478;5.702;2023-12-20T06:30:08;7.00;99.90
43151;DHT22;28755;51.478;5.702;2023-12-20T06:32:35;7.10;99.90
43151;DHT22;28755;51.478;5.702;2023-12-20T06:35:00;7.10;99.90
43151;DHT22;28755;51.478;5.702;2023-12-20T06:37:26;7.20;99.90
43151;DHT22;28755;51.478;5.702;2023-12-20T06:39:52;7.10;99.90
43151;DHT22;28755;51.478;5.702;2023-12-20T06:42:18;7.10;99.90
43151;DHT22;28755;51.478;5.702;2023-12-20T06:44:44;7.20;99.90
43151;DHT22;28755;51.478;5.702;2023-12-20T06:47:09;7.20;99.90
43151;DHT22;28755;51.478;5.702;2023-12-20T06:49:35;7.00;99.90
43151;DHT22;28755;51.478;5.702;2023-12-20T06:52:00;7.10;99.90
43151;DHT22;28755;51.478;5.702;2023-12-20T06:54:26;7.00;99.90
43151;DHT22;28755;51.478;5.702;2023-12-20T06:56:51;6.90;99.90
43151;DHT22;28755;51.478;5.702;2023-12-20T06:59:17;6.90;99.90
43151;DHT22;28755;51.478;5.702;2023-12-20T07:01:45;6.90;99.90
43151;DHT22;28755;51.478;5.702;2023-12-20T07:04:12;6.90;99.90
43151;DHT22;28755;51.478;5.702;2023-12-20T07:06:38;7.00;99.90
43151;DHT22;28755;51.478;5.702;2023-12-20T07:09:03;6.90;99.90
43151;DHT22;28755;51.478;5.702;2023-12-20T07:11:29;6.80;99.90
43151;DHT22;28755;51.478;5.702;2023-12-20T07:13:55;6.90;99.90
43151;DHT22;28755;51.478;5.702;2023-12-20T07:16:20;6.80;99.90
43151;DHT22;28755;51.478;5.702;2023-12-20T07:18:46;6.80;99.90
43151;DHT22;28755;51.478;5.702;2023-12-20T07:21:12;6.90;99.90
43151;DHT22;28755;51.478;5.702;2023-12-20T07:23:38;6.80;99.90
43151;DHT22;28755;51.478;5.702;2023-12-20T07:26:03;6.90;99.90
43151;DHT22;28755;51.478;5.702;2023-12-20T07:28:29;6.90;99.90
43151;DHT22;28755;51.478;5.702;2023-12-20T07:30:55;6.90;99.90
43151;DHT22;28755;51.478;5.702;2023-12-20T07:33:21;6.90;99.90
43151;DHT22;28755;51.478;5.702;2023-12-20T07:35:47;6.90;99.90
43151;DHT22;28755;51.478;5.702;2023-12-20T07:38:12;6.90;99.90
43151;DHT22;28755;51.478;5.702;2023-12-20T07:40:38;7.00;99.90
43151;DHT22;28755;51.478;5.702;2023-12-20T07:43:04;6.90;99.90
43151;DHT22;28755;51.478;5.702;2023-12-20T07:45:30;7.10;99.90
43151;DHT22;28755;51.478;5.702;2023-12-20T07:47:55;6.90;99.90
43151;DHT22;28755;51.478;5.702;2023-12-20T07:50:21;6.90;99.90
43151;DHT22;28755;51.478;5.702;2023-12-20T07:52:47;6.90;99.90
43151;DHT22;28755;51.478;5.702;2023-12-20T07:55:12;6.90;99.90
43151;DHT22;28755;51.478;5.702;2023-12-20T07:57:38;7.00;99.90
43151;DHT22;28755;51.478;5.702;2023-12-20T08:00:04;7.00;99.90
43151;DHT22;28755;51.478;5.702;2023-12-20T08:02:30;7.00;99.90
43151;DHT22;28755;51.478;5.702;2023-12-20T08:04:56;7.20;99.90
43151;DHT22;28755;51.478;5.702;2023-12-20T08:07:21;7.10;99.90
43151;DHT22;28755;51.478;5.702;2023-12-20T08:09:47;7.10;99.90
43151;DHT22;28755;51.478;5.702;2023-12-20T08:12:13;7.10;99.90
43151;DHT22;28755;51.478;5.702;2023-12-20T08:14:38;7.10;99.90
43151;DHT22;28755;51.478;5.702;2023-12-20T08:17:04;7.10;99.90
43151;DHT22;28755;51.478;5.702;2023-12-20T08:19:29;7.10;99.90
43151;DHT22;28755;51.478;5.702;2023-12-20T08:21:55;7.10;99.90
43151;DHT22;28755;51.478;5.702;2023-12-20T08:24:20;7.20;99.90
43151;DHT22;28755;51.478;5.702;2023-12-20T08:26:46;7.20;99.90
43151;DHT22;28755;51.478;5.702;2023-12-20T08:29:15;7.30;99.90
43151;DHT22;28755;51.478;5.702;2023-12-20T08:31:40;7.30;99.90
43151;DHT22;28755;51.478;5.702;2023-12-20T08:34:06;7.40;99.90
43151;DHT22;28755;51.478;5.702;2023-12-20T08:36:32;7.30;99.90
43151;DHT22;28755;51.478;5.702;2023-12-20T08:38:57;7.50;99.90
43151;DHT22;28755;51.478;5.702;2023-12-20T08:41:23;7.40;99.90
43151;DHT22;28755;51.478;5.702;2023-12-20T08:43:48;7.40;99.90
43151;DHT22;28755;51.478;5.702;2023-12-20T08:46:14;7.50;99.90
43151;DHT22;28755;51.478;5.702;2023-12-20T08:48:40;7.40;99.90
43151;DHT22;28755;51.478;5.702;2023-12-20T08:51:06;7.40;99.90
43151;DHT22;28755;51.478;5.702;2023-12-20T08:53:34;7.50;99.90
43151;DHT22;28755;51.478;5.702;2023-12-20T08:55:59;7.40;99.90
43151;DHT22;28755;51.478;5.702;2023-12-20T08:58:30;7.40;99.90
43151;DHT22;28755;51.478;5.702;2023-12-20T09:00:56;7.40;99.90
43151;DHT22;28755;51.478;5.702;2023-12-20T09:03:22;7.50;99.90
43151;DHT22;28755;51.478;5.702;2023-12-20T09:05:48;7.90;99.90
43151;DHT22;28755;51.478;5.702;2023-12-20T09:08:13;8.00;99.90
43151;DHT22;28755;51.478;5.702;2023-12-20T09:10:39;7.90;99.90
43151;DHT22;28755;51.478;5.702;2023-12-20T09:13:04;7.90;99.90
43151;DHT22;28755;51.478;5.702;2023-12-20T09:15:30;7.80;99.90
43151;DHT22;28755;51.478;5.702;2023-12-20T09:17:56;7.60;99.90
43151;DHT22;28755;51.478;5.702;2023-12-20T09:20:21;7.60;99.90
43151;DHT22;28755;51.478;5.702;2023-12-20T09:22:48;7.50;99.90
43151;DHT22;28755;51.478;5.702;2023-12-20T09:25:14;7.40;99.90
43151;DHT22;28755;51.478;5.702;2023-12-20T09:27:41;7.40;99.90
43151;DHT22;28755;51.478;5.702;2023-12-20T09:30:07;7.40;99.90
43151;DHT22;28755;51.478;5.702;2023-12-20T09:32:33;7.40;99.90
43151;DHT22;28755;51.478;5.702;2023-12-20T09:34:58;7.40;99.90
43151;DHT22;28755;51.478;5.702;2023-12-20T09:37:27;7.60;99.90
43151;DHT22;28755;51.478;5.702;2023-12-20T09:39:53;7.40;99.90
43151;DHT22;28755;51.478;5.702;2023-12-20T09:42:27;7.40;99.90
43151;DHT22;28755;51.478;5.702;2023-12-20T09:44:55;7.40;99.90
43151;DHT22;28755;51.478;5.702;2023-12-20T09:47:23;7.40;99.90
43151;DHT22;28755;51.478;5.702;2023-12-20T09:49:50;7.40;99.90
43151;DHT22;28755;51.478;5.702;2023-12-20T09:52:17;7.40;99.90
43151;DHT22;28755;51.478;5.702;2023-12-20T09:54:44;7.60;99.90
43151;DHT22;28755;51.478;5.702;2023-12-20T09:57:11;7.50;99.90
43151;DHT22;28755;51.478;5.702;2023-12-20T09:59:36;7.60;99.90
43151;DHT22;28755;51.478;5.702;2023-12-20T10:02:05;7.60;99.90
43151;DHT22;28755;51.478;5.702;2023-12-20T10:04:35;7.70;99.90
43151;DHT22;28755;51.478;5.702;2023-12-20T10:07:02;7.60;99.90
43151;DHT22;28755;51.478;5.702;2023-12-20T10:09:31;7.70;99.90
43151;DHT22;28755;51.478;5.702;2023-12-20T10:11:57;7.70;99.90
43151;DHT22;28755;51.478;5.702;2023-12-20T10:14:23;7.70;99.90
43151;DHT22;28755;51.478;5.702;2023-12-20T10:16:49;7.80;99.90
43151;DHT22;28755;51.478;5.702;2023-12-20T10:19:17;7.80;99.90
43151;DHT22;28755;51.478;5.702;2023-12-20T10:21:43;7.80;99.90
43151;DHT22;28755;51.478;5.702;2023-12-20T10:24:16;7.80;99.90
43151;DHT22;28755;51.478;5.702;2023-12-20T10:26:42;7.70;99.90
43151;DHT22;28755;51.478;5.702;2023-12-20T10:29:08;7.70;99.90
43151;DHT22;28755;51.478;5.702;2023-12-20T10:31:34;7.70;99.90
43151;DHT22;28755;51.478;5.702;2023-12-20T10:34:01;7.80;99.90
43151;DHT22;28755;51.478;5.702;2023-12-20T10:36:29;7.80;99.90
43151;DHT22;28755;51.478;5.702;2023-12-20T10:38:56;7.90;99.90
43151;DHT22;28755;51.478;5.702;2023-12-20T10:41:33;7.80;99.90
43151;DHT22;28755;51.478;5.702;2023-12-20T10:44:02;8.00;99.90
43151;DHT22;28755;51.478;5.702;2023-12-20T10:46:29;7.90;99.90
43151;DHT22;28755;51.478;5.702;2023-12-20T10:48:56;7.80;99.90
43151;DHT22;28755;51.478;5.702;2023-12-20T10:51:22;7.80;99.90
43151;DHT22;28755;51.478;5.702;2023-12-20T10:53:49;7.80;99.90
43151;DHT22;28755;51.478;5.702;2023-12-20T10:56:17;7.80;99.90
43151;DHT22;28755;51.478;5.702;2023-12-20T10:58:50;7.90;99.90
43151;DHT22;28755;51.478;5.702;2023-12-20T11:01:17;7.90;99.90
43151;DHT22;28755;51.478;5.702;2023-12-20T11:03:50;7.90;99.90
43151;DHT22;28755;51.478;5.702;2023-12-20T11:06:49;7.90;99.90
43151;DHT22;28755;51.478;5.702;2023-12-20T11:09:22;7.90;99.90
43151;DHT22;28755;51.478;5.702;2023-12-20T11:17:09;7.90;99.90
43151;DHT22;28755;51.478;5.702;2023-12-20T11:22:26;7.90;99.90
43151;DHT22;28755;51.478;5.702;2023-12-20T11:24:59;7.80;99.90
43151;DHT22;28755;51.478;5.702;2023-12-20T11:27:27;7.90;99.90
43151;DHT22;28755;51.478;5.702;2023-12-20T11:29:56;8.00;99.90
43151;DHT22;28755;51.478;5.702;2023-12-20T11:35:01;7.90;99.90
43151;DHT22;28755;51.478;5.702;2023-12-20T11:37:30;8.10;99.90
43151;DHT22;28755;51.478;5.702;2023-12-20T11:40:06;7.90;99.90
43151;DHT22;28755;51.478;5.702;2023-12-20T11:42:50;8.00;99.90
43151;DHT22;28755;51.478;5.702;2023-12-20T11:45:21;8.10;99.90
43151;DHT22;28755;51.478;5.702;2023-12-20T11:47:48;8.10;99.90
43151;DHT22;28755;51.478;5.702;2023-12-20T11:50:18;7.90;99.90
43151;DHT22;28755;51.478;5.702;2023-12-20T11:52:44;7.90;99.90
43151;DHT22;28755;51.478;5.702;2023-12-20T11:55:09;7.90;99.90
43151;DHT22;28755;51.478;5.702;2023-12-20T11:57:36;7.80;99.90
43151;DHT22;28755;51.478;5.702;2023-12-20T12:00:02;7.80;99.90
43151;DHT22;28755;51.478;5.702;2023-12-20T12:02:28;7.80;99.90
43151;DHT22;28755;51.478;5.702;2023-12-20T12:04:54;7.80;99.90
43151;DHT22;28755;51.478;5.702;2023-12-20T12:07:21;7.80;99.90
43151;DHT22;28755;51.478;5.702;2023-12-20T12:09:47;7.80;99.90
43151;DHT22;28755;51.478;5.702;2023-12-20T12:12:13;7.70;99.90
43151;DHT22;28755;51.478;5.702;2023-12-20T12:14:39;7.70;99.90
43151;DHT22;28755;51.478;5.702;2023-12-20T12:17:13;7.70;99.90
43151;DHT22;28755;51.478;5.702;2023-12-20T12:19:40;7.60;99.90
43151;DHT22;28755;51.478;5.702;2023-12-20T12:22:10;7.60;99.90
43151;DHT22;28755;51.478;5.702;2023-12-20T12:24:39;7.60;99.90
43151;DHT22;28755;51.478;5.702;2023-12-20T12:27:08;7.70;99.90
43151;DHT22;28755;51.478;5.702;2023-12-20T12:29:35;7.70;99.90
43151;DHT22;28755;51.478;5.702;2023-12-20T12:32:01;7.70;99.90
43151;DHT22;28755;51.478;5.702;2023-12-20T12:34:29;7.70;99.90
43151;DHT22;28755;51.478;5.702;2023-12-20T12:36:56;7.70;99.90
43151;DHT22;28755;51.478;5.702;2023-12-20T12:39:24;7.60;99.90
43151;DHT22;28755;51.478;5.702;2023-12-20T12:41:53;7.70;99.90
43151;DHT22;28755;51.478;5.702;2023-12-20T12:44:19;7.70;99.90
43151;DHT22;28755;51.478;5.702;2023-12-20T12:46:48;7.60;99.90
43151;DHT22;28755;51.478;5.702;2023-12-20T12:49:16;7.70;99.90
43151;DHT22;28755;51.478;5.702;2023-12-20T12:51:42;7.70;99.90
43151;DHT22;28755;51.478;5.702;2023-12-20T12:54:09;7.80;99.90
43151;DHT22;28755;51.478;5.702;2023-12-20T12:56:35;7.80;99.90
43151;DHT22;28755;51.478;5.702;2023-12-20T12:59:01;8.00;99.90
43151;DHT22;28755;51.478;5.702;2023-12-20T13:01:27;8.00;99.90
43151;DHT22;28755;51.478;5.702;2023-12-20T13:03:53;8.00;99.90
43151;DHT22;28755;51.478;5.702;2023-12-20T13:06:19;8.00;99.90
43151;DHT22;28755;51.478;5.702;2023-12-20T13:08:45;8.10;99.90
43151;DHT22;28755;51.478;5.702;2023-12-20T13:11:11;8.10;99.90
43151;DHT22;28755;51.478;5.702;2023-12-20T13:13:36;8.10;99.90
43151;DHT22;28755;51.478;5.702;2023-12-20T13:16:02;8.10;99.90
43151;DHT22;28755;51.478;5.702;2023-12-20T13:18:28;8.20;99.90
43151;DHT22;28755;51.478;5.702;2023-12-20T13:20:53;8.30;99.90
43151;DHT22;28755;51.478;5.702;2023-12-20T13:23:19;8.30;99.90
43151;DHT22;28755;51.478;5.702;2023-12-20T13:25:45;8.40;99.90
43151;DHT22;28755;51.478;5.702;2023-12-20T13:28:13;8.40;99.90
43151;DHT22;28755;51.478;5.702;2023-12-20T13:30:39;8.50;99.90
43151;DHT22;28755;51.478;5.702;2023-12-20T13:33:05;8.60;99.90
43151;DHT22;28755;51.478;5.702;2023-12-20T13:35:31;8.50;99.90
43151;DHT22;28755;51.478;5.702;2023-12-20T13:38:00;8.60;99.90
43151;DHT22;28755;51.478;5.702;2023-12-20T13:40:26;8.60;99.90
43151;DHT22;28755;51.478;5.702;2023-12-20T13:42:51;8.60;99.90
43151;DHT22;28755;51.478;5.702;2023-12-20T13:45:17;8.60;99.90
43151;DHT22;28755;51.478;5.702;2023-12-20T13:47:42;8.60;99.90
43151;DHT22;28755;51.478;5.702;2023-12-20T13:50:08;8.60;99.90
43151;DHT22;28755;51.478;5.702;2023-12-20T13:52:35;8.60;99.90
43151;DHT22;28755;51.478;5.702;2023-12-20T13:55:01;8.60;99.90
43151;DHT22;28755;51.478;5.702;2023-12-20T13:57:27;8.80;99.90
43151;DHT22;28755;51.478;5.702;2023-12-20T13:59:54;8.50;99.90
43151;DHT22;28755;51.478;5.702;2023-12-20T14:02:19;8.50;99.90
43151;DHT22;28755;51.478;5.702;2023-12-20T14:04:45;8.50;99.90
43151;DHT22;28755;51.478;5.702;2023-12-20T14:07:11;8.50;99.90
43151;DHT22;28755;51.478;5.702;2023-12-20T14:09:36;8.50;99.90
43151;DHT22;28755;51.478;5.702;2023-12-20T14:12:02;8.50;99.90
43151;DHT22;28755;51.478;5.702;2023-12-20T14:14:28;8.50;99.90
43151;DHT22;28755;51.478;5.702;2023-12-20T14:16:53;8.50;99.90
43151;DHT22;28755;51.478;5.702;2023-12-20T14:19:19;8.60;99.90
43151;DHT22;28755;51.478;5.702;2023-12-20T14:21:44;8.60;99.90
43151;DHT22;28755;51.478;5.702;2023-12-20T14:24:15;8.50;99.90
43151;DHT22;28755;51.478;5.702;2023-12-20T14:26:41;8.50;99.90
43151;DHT22;28755;51.478;5.702;2023-12-20T14:29:07;8.50;99.90
43151;DHT22;28755;51.478;5.702;2023-12-20T14:31:33;8.50;99.90
43151;DHT22;28755;51.478;5.702;2023-12-20T14:33:58;8.50;99.90
43151;DHT22;28755;51.478;5.702;2023-12-20T14:36:24;8.50;99.90
43151;DHT22;28755;51.478;5.702;2023-12-20T14:38:50;8.50;99.90
43151;DHT22;28755;51.478;5.702;2023-12-20T14:41:16;8.60;99.90
43151;DHT22;28755;51.478;5.702;2023-12-20T14:43:44;8.50;99.90
43151;DHT22;28755;51.478;5.702;2023-12-20T14:46:10;8.50;99.90
43151;DHT22;28755;51.478;5.702;2023-12-20T14:48:36;8.50;99.90
43151;DHT22;28755;51.478;5.702;2023-12-20T14:51:01;8.50;99.90
43151;DHT22;28755;51.478;5.702;2023-12-20T14:53:27;8.50;99.90
43151;DHT22;28755;51.478;5.702;2023-12-20T14:55:52;8.50;99.90
43151;DHT22;28755;51.478;5.702;2023-12-20T14:58:18;8.50;99.90
43151;DHT22;28755;51.478;5.702;2023-12-20T15:00:44;8.50;99.90
43151;DHT22;28755;51.478;5.702;2023-12-20T15:03:10;8.50;99.90
43151;DHT22;28755;51.478;5.702;2023-12-20T15:05:36;8.50;99.90
43151;DHT22;28755;51.478;5.702;2023-12-20T15:08:02;8.50;99.90
43151;DHT22;28755;51.478;5.702;2023-12-20T15:10:28;8.50;99.90
43151;DHT22;28755;51.478;5.702;2023-12-20T15:12:53;8.60;99.90
43151;DHT22;28755;51.478;5.702;2023-12-20T15:15:20;8.50;99.90
43151;DHT22;28755;51.478;5.702;2023-12-20T15:17:46;8.50;99.90
43151;DHT22;28755;51.478;5.702;2023-12-20T15:20:12;8.50;99.90
43151;DHT22;28755;51.478;5.702;2023-12-20T15:22:37;8.50;99.90
43151;DHT22;28755;51.478;5.702;2023-12-20T15:25:05;8.50;99.90
43151;DHT22;28755;51.478;5.702;2023-12-20T15:27:34;8.50;99.90
43151;DHT22;28755;51.478;5.702;2023-12-20T15:30:02;8.50;99.90
43151;DHT22;28755;51.478;5.702;2023-12-20T15:32:28;8.50;99.90
43151;DHT22;28755;51.478;5.702;2023-12-20T15:34:54;8.60;99.90
43151;DHT22;28755;51.478;5.702;2023-12-20T15:37:19;8.50;99.90
43151;DHT22;28755;51.478;5.702;2023-12-20T15:39:45;8.50;99.90
43151;DHT22;28755;51.478;5.702;2023-12-20T15:42:11;8.50;99.90
43151;DHT22;28755;51.478;5.702;2023-12-20T15:44:36;8.60;99.90
43151;DHT22;28755;51.478;5.702;2023-12-20T15:47:02;8.60;99.90
43151;DHT22;28755;51.478;5.702;2023-12-20T15:49:28;8.60;99.90